sensor_id;sensor_type;location;lat;lon;timestamp;pressure;altitude;pressure_sealevel;temperature
35582;BMP180;21687;48.900;9.188;2022-08-21T00:00:05;98543.00;;;14.10
35582;BMP180;21687;48.900;9.188;2022-08-21T00:02:32;98546.00;;;14.10
35582;BMP180;21687;48.900;9.188;2022-08-21T00:04:59;98540.00;;;14.00
35582;BMP180;21687;48.900;9.188;2022-08-21T00:07:25;98537.00;;;13.90
35582;BMP180;21687;48.900;9.188;2022-08-21T00:09:52;98535.00;;;13.80
35582;BMP180;21687;48.900;9.188;2022-08-21T00:12:19;98530.00;;;13.80
35582;BMP180;21687;48.900;9.188;2022-08-21T00:14:45;98528.00;;;13.70
35582;BMP180;21687;48.900;9.188;2022-08-21T00:17:12;98539.00;;;13.70
35582;BMP180;21687;48.900;9.188;2022-08-21T00:19:39;98535.00;;;13.70
35582;BMP180;21687;48.900;9.188;2022-08-21T00:22:05;98523.00;;;13.60
35582;BMP180;21687;48.900;9.188;2022-08-21T00:24:31;98522.00;;;13.60
35582;BMP180;21687;48.900;9.188;2022-08-21T00:26:58;98534.00;;;13.50
35582;BMP180;21687;48.900;9.188;2022-08-21T00:29:24;98520.00;;;13.40
35582;BMP180;21687;48.900;9.188;2022-08-21T00:31:51;98527.00;;;13.40
35582;BMP180;21687;48.900;9.188;2022-08-21T00:34:17;98523.00;;;13.30
35582;BMP180;21687;48.900;9.188;2022-08-21T00:36:43;98531.00;;;13.30
35582;BMP180;21687;48.900;9.188;2022-08-21T00:39:10;98528.00;;;13.30
35582;BMP180;21687;48.900;9.188;2022-08-21T00:41:42;98526.00;;;13.30
35582;BMP180;21687;48.900;9.188;2022-08-21T00:44:10;98543.00;;;13.30
35582;BMP180;21687;48.900;9.188;2022-08-21T00:46:37;98525.00;;;13.20
35582;BMP180;21687;48.900;9.188;2022-08-21T00:49:05;98526.00;;;13.30
35582;BMP180;21687;48.900;9.188;2022-08-21T00:51:49;98519.00;;;13.20
35582;BMP180;21687;48.900;9.188;2022-08-21T00:54:17;98518.00;;;13.20
35582;BMP180;21687;48.900;9.188;2022-08-21T00:56:45;98522.00;;;13.10
35582;BMP180;21687;48.900;9.188;2022-08-21T00:59:11;98515.00;;;13.10
35582;BMP180;21687;48.900;9.188;2022-08-21T01:01:38;98510.00;;;13.10
35582;BMP180;21687;48.900;9.188;2022-08-21T01:04:04;98520.00;;;13.10
35582;BMP180;21687;48.900;9.188;2022-08-21T01:06:31;98521.00;;;13.10
35582;BMP180;21687;48.900;9.188;2022-08-21T01:08:58;98517.00;;;13.10
35582;BMP180;21687;48.900;9.188;2022-08-21T01:11:25;98521.00;;;13.10
35582;BMP180;21687;48.900;9.188;2022-08-21T01:13:51;98509.00;;;13.00
35582;BMP180;21687;48.900;9.188;2022-08-21T01:16:20;98521.00;;;13.00
35582;BMP180;21687;48.900;9.188;2022-08-21T01:18:48;98517.00;;;12.90
35582;BMP180;21687;48.900;9.188;2022-08-21T01:21:17;98507.00;;;12.90
35582;BMP180;21687;48.900;9.188;2022-08-21T01:23:47;98514.00;;;12.90
35582;BMP180;21687;48.900;9.188;2022-08-21T01:26:17;98510.00;;;12.90
35582;BMP180;21687;48.900;9.188;2022-08-21T01:31:36;98501.00;;;12.90
35582;BMP180;21687;48.900;9.188;2022-08-21T01:34:03;98511.00;;;12.90
35582;BMP180;21687;48.900;9.188;2022-08-21T01:36:30;98517.00;;;12.90
35582;BMP180;21687;48.900;9.188;2022-08-21T01:38:56;98508.00;;;12.90
35582;BMP180;21687;48.900;9.188;2022-08-21T01:41:23;98511.00;;;12.90
35582;BMP180;21687;48.900;9.188;2022-08-21T01:43:49;98519.00;;;13.00
35582;BMP180;21687;48.900;9.188;2022-08-21T01:46:16;98503.00;;;12.90
35582;BMP180;21687;48.900;9.188;2022-08-21T01:48:43;98499.00;;;12.90
35582;BMP180;21687;48.900;9.188;2022-08-21T01:51:09;98509.00;;;13.00
35582;BMP180;21687;48.900;9.188;2022-08-21T01:53:36;98512.00;;;13.00
35582;BMP180;21687;48.900;9.188;2022-08-21T01:56:09;98508.00;;;13.10
35582;BMP180;21687;48.900;9.188;2022-08-21T01:58:35;98506.00;;;13.00
35582;BMP180;21687;48.900;9.188;2022-08-21T02:01:02;98501.00;;;12.90
35582;BMP180;21687;48.900;9.188;2022-08-21T02:03:29;98505.00;;;12.90
35582;BMP180;21687;48.900;9.188;2022-08-21T02:05:56;98500.00;;;12.80
35582;BMP180;21687;48.900;9.188;2022-08-21T02:08:23;98496.00;;;12.70
35582;BMP180;21687;48.900;9.188;2022-08-21T02:10:50;98496.00;;;12.70
35582;BMP180;21687;48.900;9.188;2022-08-21T02:13:17;98491.00;;;12.60
35582;BMP180;21687;48.900;9.188;2022-08-21T02:15:44;98492.00;;;12.50
35582;BMP180;21687;48.900;9.188;2022-08-21T02:18:10;98490.00;;;12.50
35582;BMP180;21687;48.900;9.188;2022-08-21T02:20:40;98487.00;;;12.50
35582;BMP180;21687;48.900;9.188;2022-08-21T02:23:08;98492.00;;;12.40
35582;BMP180;21687;48.900;9.188;2022-08-21T02:25:35;98487.00;;;12.50
35582;BMP180;21687;48.900;9.188;2022-08-21T02:28:07;98481.00;;;12.50
35582;BMP180;21687;48.900;9.188;2022-08-21T02:33:57;98484.00;;;12.30
35582;BMP180;21687;48.900;9.188;2022-08-21T02:36:23;98480.00;;;12.30
35582;BMP180;21687;48.900;9.188;2022-08-21T02:38:49;98477.00;;;12.10
35582;BMP180;21687;48.900;9.188;2022-08-21T02:41:17;98483.00;;;12.10
35582;BMP180;21687;48.900;9.188;2022-08-21T02:43:44;98484.00;;;12.00
35582;BMP180;21687;48.900;9.188;2022-08-21T02:46:12;98486.00;;;12.10
35582;BMP180;21687;48.900;9.188;2022-08-21T02:48:41;98482.00;;;12.00
35582;BMP180;21687;48.900;9.188;2022-08-21T02:51:14;98492.00;;;12.00
35582;BMP180;21687;48.900;9.188;2022-08-21T02:53:41;98485.00;;;12.00
35582;BMP180;21687;48.900;9.188;2022-08-21T02:56:10;98483.00;;;12.00
35582;BMP180;21687;48.900;9.188;2022-08-21T02:58:45;98487.00;;;12.00
35582;BMP180;21687;48.900;9.188;2022-08-21T03:01:12;98490.00;;;12.00
35582;BMP180;21687;48.900;9.188;2022-08-21T03:03:41;98487.00;;;12.10
35582;BMP180;21687;48.900;9.188;2022-08-21T03:06:11;98480.00;;;12.10
35582;BMP180;21687;48.900;9.188;2022-08-21T03:08:38;98484.00;;;12.00
35582;BMP180;21687;48.900;9.188;2022-08-21T03:11:05;98483.00;;;12.10
35582;BMP180;21687;48.900;9.188;2022-08-21T03:13:31;98480.00;;;12.00
35582;BMP180;21687;48.900;9.188;2022-08-21T03:15:58;98481.00;;;12.00
35582;BMP180;21687;48.900;9.188;2022-08-21T03:18:24;98481.00;;;12.00
35582;BMP180;21687;48.900;9.188;2022-08-21T03:20:51;98484.00;;;12.00
35582;BMP180;21687;48.900;9.188;2022-08-21T03:23:17;98482.00;;;12.00
35582;BMP180;21687;48.900;9.188;2022-08-21T03:25:45;98479.00;;;12.10
35582;BMP180;21687;48.900;9.188;2022-08-21T03:28:14;98486.00;;;12.10
35582;BMP180;21687;48.900;9.188;2022-08-21T03:30:42;98486.00;;;12.20
35582;BMP180;21687;48.900;9.188;2022-08-21T03:33:09;98485.00;;;12.20
35582;BMP180;21687;48.900;9.188;2022-08-21T03:35:36;98489.00;;;12.10
35582;BMP180;21687;48.900;9.188;2022-08-21T03:38:02;98488.00;;;12.00
35582;BMP180;21687;48.900;9.188;2022-08-21T03:40:29;98495.00;;;12.00
35582;BMP180;21687;48.900;9.188;2022-08-21T03:42:55;98499.00;;;12.00
35582;BMP180;21687;48.900;9.188;2022-08-21T03:45:21;98487.00;;;11.90
35582;BMP180;21687;48.900;9.188;2022-08-21T03:50:26;98491.00;;;11.80
35582;BMP180;21687;48.900;9.188;2022-08-21T03:52:52;98494.00;;;11.80
35582;BMP180;21687;48.900;9.188;2022-08-21T03:55:19;98502.00;;;11.80
35582;BMP180;21687;48.900;9.188;2022-08-21T03:57:46;98499.00;;;11.70
35582;BMP180;21687;48.900;9.188;2022-08-21T04:00:14;98500.00;;;11.90
35582;BMP180;21687;48.900;9.188;2022-08-21T04:02:41;98504.00;;;11.80
35582;BMP180;21687;48.900;9.188;2022-08-21T04:05:09;98503.00;;;11.70
35582;BMP180;21687;48.900;9.188;2022-08-21T04:07:36;98505.00;;;11.70
35582;BMP180;21687;48.900;9.188;2022-08-21T04:10:06;98496.00;;;11.60
35582;BMP180;21687;48.900;9.188;2022-08-21T04:12:33;98504.00;;;11.70
35582;BMP180;21687;48.900;9.188;2022-08-21T04:14:59;98513.00;;;11.70
35582;BMP180;21687;48.900;9.188;2022-08-21T04:17:27;98501.00;;;11.70
35582;BMP180;21687;48.900;9.188;2022-08-21T04:19:53;98502.00;;;11.70
35582;BMP180;21687;48.900;9.188;2022-08-21T04:22:20;98508.00;;;11.70
35582;BMP180;21687;48.900;9.188;2022-08-21T04:24:46;98512.00;;;11.80
35582;BMP180;21687;48.900;9.188;2022-08-21T04:27:13;98516.00;;;11.70
35582;BMP180;21687;48.900;9.188;2022-08-21T04:29:39;98521.00;;;11.70
35582;BMP180;21687;48.900;9.188;2022-08-21T04:32:05;98526.00;;;11.70
35582;BMP180;21687;48.900;9.188;2022-08-21T04:34:32;98521.00;;;11.70
35582;BMP180;21687;48.900;9.188;2022-08-21T04:36:58;98521.00;;;11.80
35582;BMP180;21687;48.900;9.188;2022-08-21T04:39:24;98528.00;;;11.80
35582;BMP180;21687;48.900;9.188;2022-08-21T04:41:51;98539.00;;;11.90
35582;BMP180;21687;48.900;9.188;2022-08-21T04:44:17;98540.00;;;12.00
35582;BMP180;21687;48.900;9.188;2022-08-21T04:46:44;98539.00;;;12.10
35582;BMP180;21687;48.900;9.188;2022-08-21T04:49:10;98539.00;;;12.10
35582;BMP180;21687;48.900;9.188;2022-08-21T04:51:37;98535.00;;;12.20
35582;BMP180;21687;48.900;9.188;2022-08-21T04:56:48;98537.00;;;12.30
35582;BMP180;21687;48.900;9.188;2022-08-21T04:59:29;98531.00;;;12.30
35582;BMP180;21687;48.900;9.188;2022-08-21T05:01:57;98537.00;;;12.50
35582;BMP180;21687;48.900;9.188;2022-08-21T05:04:27;98537.00;;;12.60
35582;BMP180;21687;48.900;9.188;2022-08-21T05:06:58;98536.00;;;12.60
35582;BMP180;21687;48.900;9.188;2022-08-21T05:09:26;98539.00;;;12.70
35582;BMP180;21687;48.900;9.188;2022-08-21T05:11:53;98536.00;;;12.80
35582;BMP180;21687;48.900;9.188;2022-08-21T05:14:19;98547.00;;;12.90
35582;BMP180;21687;48.900;9.188;2022-08-21T05:16:46;98548.00;;;13.00
35582;BMP180;21687;48.900;9.188;2022-08-21T05:19:13;98544.00;;;13.10
35582;BMP180;21687;48.900;9.188;2022-08-21T05:21:42;98554.00;;;13.20
35582;BMP180;21687;48.900;9.188;2022-08-21T05:24:08;98554.00;;;13.20
35582;BMP180;21687;48.900;9.188;2022-08-21T05:26:35;98563.00;;;13.20
35582;BMP180;21687;48.900;9.188;2022-08-21T05:29:03;98558.00;;;13.30
35582;BMP180;21687;48.900;9.188;2022-08-21T05:31:29;98564.00;;;13.30
35582;BMP180;21687;48.900;9.188;2022-08-21T05:33:56;98558.00;;;13.30
35582;BMP180;21687;48.900;9.188;2022-08-21T05:36:23;98553.00;;;13.40
35582;BMP180;21687;48.900;9.188;2022-08-21T05:38:51;98557.00;;;13.40
35582;BMP180;21687;48.900;9.188;2022-08-21T05:41:17;98560.00;;;13.50
35582;BMP180;21687;48.900;9.188;2022-08-21T05:43:43;98566.00;;;13.70
35582;BMP180;21687;48.900;9.188;2022-08-21T05:46:10;98568.00;;;13.70
35582;BMP180;21687;48.900;9.188;2022-08-21T05:48:36;98561.00;;;13.80
35582;BMP180;21687;48.900;9.188;2022-08-21T05:51:10;98565.00;;;14.00
35582;BMP180;21687;48.900;9.188;2022-08-21T05:53:37;98561.00;;;14.10
35582;BMP180;21687;48.900;9.188;2022-08-21T05:56:06;98567.00;;;14.20
35582;BMP180;21687;48.900;9.188;2022-08-21T05:58:34;98557.00;;;14.50
35582;BMP180;21687;48.900;9.188;2022-08-21T06:01:01;98564.00;;;14.50
35582;BMP180;21687;48.900;9.188;2022-08-21T06:03:31;98568.00;;;14.60
35582;BMP180;21687;48.900;9.188;2022-08-21T06:05:58;98565.00;;;14.80
35582;BMP180;21687;48.900;9.188;2022-08-21T06:08:25;98567.00;;;14.90
35582;BMP180;21687;48.900;9.188;2022-08-21T06:10:53;98561.00;;;15.10
35582;BMP180;21687;48.900;9.188;2022-08-21T06:13:22;98569.00;;;15.20
35582;BMP180;21687;48.900;9.188;2022-08-21T06:15:48;98579.00;;;15.30
35582;BMP180;21687;48.900;9.188;2022-08-21T06:18:15;98573.00;;;15.50
35582;BMP180;21687;48.900;9.188;2022-08-21T06:20:42;98574.00;;;15.70
35582;BMP180;21687;48.900;9.188;2022-08-21T06:23:10;98581.00;;;15.70
35582;BMP180;21687;48.900;9.188;2022-08-21T06:25:36;98574.00;;;15.90
35582;BMP180;21687;48.900;9.188;2022-08-21T06:28:08;98556.00;;;16.10
35582;BMP180;21687;48.900;9.188;2022-08-21T06:30:36;98571.00;;;16.20
35582;BMP180;21687;48.900;9.188;2022-08-21T06:33:04;98572.00;;;16.20
35582;BMP180;21687;48.900;9.188;2022-08-21T06:35:32;98572.00;;;16.40
35582;BMP180;21687;48.900;9.188;2022-08-21T06:37:58;98567.00;;;16.90
35582;BMP180;21687;48.900;9.188;2022-08-21T06:40:26;98561.00;;;17.40
35582;BMP180;21687;48.900;9.188;2022-08-21T06:42:53;98559.00;;;17.90
35582;BMP180;21687;48.900;9.188;2022-08-21T06:45:19;98568.00;;;18.60
35582;BMP180;21687;48.900;9.188;2022-08-21T06:47:46;98557.00;;;19.10
35582;BMP180;21687;48.900;9.188;2022-08-21T06:50:12;98573.00;;;19.80
35582;BMP180;21687;48.900;9.188;2022-08-21T06:52:38;98564.00;;;19.80
35582;BMP180;21687;48.900;9.188;2022-08-21T06:55:09;98561.00;;;20.10
35582;BMP180;21687;48.900;9.188;2022-08-21T06:57:36;98558.00;;;20.50
35582;BMP180;21687;48.900;9.188;2022-08-21T07:00:04;98558.00;;;20.90
35582;BMP180;21687;48.900;9.188;2022-08-21T07:02:30;98562.00;;;21.10
35582;BMP180;21687;48.900;9.188;2022-08-21T07:04:57;98562.00;;;21.30
35582;BMP180;21687;48.900;9.188;2022-08-21T07:07:24;98563.00;;;21.70
35582;BMP180;21687;48.900;9.188;2022-08-21T07:09:50;98562.00;;;21.70
35582;BMP180;21687;48.900;9.188;2022-08-21T07:12:16;98565.00;;;21.50
35582;BMP180;21687;48.900;9.188;2022-08-21T07:14:42;98559.00;;;21.70
35582;BMP180;21687;48.900;9.188;2022-08-21T07:17:09;98562.00;;;21.70
35582;BMP180;21687;48.900;9.188;2022-08-21T07:19:35;98557.00;;;21.60
35582;BMP180;21687;48.900;9.188;2022-08-21T07:22:02;98563.00;;;21.70
35582;BMP180;21687;48.900;9.188;2022-08-21T07:24:29;98573.00;;;21.30
35582;BMP180;21687;48.900;9.188;2022-08-21T07:26:55;98567.00;;;21.70
35582;BMP180;21687;48.900;9.188;2022-08-21T07:29:24;98562.00;;;22.00
35582;BMP180;21687;48.900;9.188;2022-08-21T07:31:51;98567.00;;;21.90
35582;BMP180;21687;48.900;9.188;2022-08-21T07:34:17;98562.00;;;22.20
35582;BMP180;21687;48.900;9.188;2022-08-21T07:36:43;98564.00;;;22.40
35582;BMP180;21687;48.900;9.188;2022-08-21T07:39:10;98563.00;;;22.40
35582;BMP180;21687;48.900;9.188;2022-08-21T07:41:36;98566.00;;;21.80
35582;BMP180;21687;48.900;9.188;2022-08-21T07:44:03;98565.00;;;21.50
35582;BMP180;21687;48.900;9.188;2022-08-21T07:46:29;98557.00;;;21.40
35582;BMP180;21687;48.900;9.188;2022-08-21T07:48:56;98566.00;;;21.60
35582;BMP180;21687;48.900;9.188;2022-08-21T07:51:25;98566.00;;;22.30
35582;BMP180;21687;48.900;9.188;2022-08-21T07:53:54;98561.00;;;22.50
35582;BMP180;21687;48.900;9.188;2022-08-21T07:56:21;98554.00;;;22.50
35582;BMP180;21687;48.900;9.188;2022-08-21T07:58:48;98557.00;;;22.30
35582;BMP180;21687;48.900;9.188;2022-08-21T08:01:14;98561.00;;;22.30
35582;BMP180;21687;48.900;9.188;2022-08-21T08:03:41;98550.00;;;22.70
35582;BMP180;21687;48.900;9.188;2022-08-21T08:06:08;98556.00;;;23.10
35582;BMP180;21687;48.900;9.188;2022-08-21T08:08:38;98561.00;;;23.20
35582;BMP180;21687;48.900;9.188;2022-08-21T08:11:05;98556.00;;;23.60
35582;BMP180;21687;48.900;9.188;2022-08-21T08:13:37;98556.00;;;23.90
35582;BMP180;21687;48.900;9.188;2022-08-21T08:16:03;98552.00;;;24.20
35582;BMP180;21687;48.900;9.188;2022-08-21T08:18:30;98552.00;;;24.50
35582;BMP180;21687;48.900;9.188;2022-08-21T08:20:56;98556.00;;;24.50
35582;BMP180;21687;48.900;9.188;2022-08-21T08:23:22;98548.00;;;24.70
35582;BMP180;21687;48.900;9.188;2022-08-21T08:25:49;98547.00;;;24.70
35582;BMP180;21687;48.900;9.188;2022-08-21T08:28:15;98548.00;;;24.40
35582;BMP180;21687;48.900;9.188;2022-08-21T08:30:41;98542.00;;;24.00
35582;BMP180;21687;48.900;9.188;2022-08-21T08:33:08;98543.00;;;24.10
35582;BMP180;21687;48.900;9.188;2022-08-21T08:35:35;98536.00;;;24.10
35582;BMP180;21687;48.900;9.188;2022-08-21T08:38:02;98539.00;;;24.30
35582;BMP180;21687;48.900;9.188;2022-08-21T08:40:42;98545.00;;;24.80
35582;BMP180;21687;48.900;9.188;2022-08-21T08:43:13;98543.00;;;24.70
35582;BMP180;21687;48.900;9.188;2022-08-21T08:45:42;98538.00;;;23.90
35582;BMP180;21687;48.900;9.188;2022-08-21T08:48:14;98530.00;;;24.80
35582;BMP180;21687;48.900;9.188;2022-08-21T08:50:53;98530.00;;;24.40
35582;BMP180;21687;48.900;9.188;2022-08-21T08:53:45;98525.00;;;24.60
35582;BMP180;21687;48.900;9.188;2022-08-21T08:56:12;98527.00;;;24.70
35582;BMP180;21687;48.900;9.188;2022-08-21T08:58:42;98529.00;;;24.90
35582;BMP180;21687;48.900;9.188;2022-08-21T09:01:17;98528.00;;;25.30
35582;BMP180;21687;48.900;9.188;2022-08-21T09:03:46;98523.00;;;25.70
35582;BMP180;21687;48.900;9.188;2022-08-21T09:06:55;98519.00;;;25.90
35582;BMP180;21687;48.900;9.188;2022-08-21T09:09:36;98512.00;;;25.80
35582;BMP180;21687;48.900;9.188;2022-08-21T09:18:10;98516.00;;;26.70
35582;BMP180;21687;48.900;9.188;2022-08-21T09:23:40;98522.00;;;27.00
35582;BMP180;21687;48.900;9.188;2022-08-21T09:26:14;98514.00;;;26.40
35582;BMP180;21687;48.900;9.188;2022-08-21T09:28:41;98515.00;;;26.40
35582;BMP180;21687;48.900;9.188;2022-08-21T09:31:16;98515.00;;;26.30
35582;BMP180;21687;48.900;9.188;2022-08-21T09:33:47;98514.00;;;26.20
35582;BMP180;21687;48.900;9.188;2022-08-21T09:36:29;98507.00;;;26.00
35582;BMP180;21687;48.900;9.188;2022-08-21T09:38:57;98514.00;;;25.00
35582;BMP180;21687;48.900;9.188;2022-08-21T09:41:29;98511.00;;;24.70
35582;BMP180;21687;48.900;9.188;2022-08-21T09:43:57;98507.00;;;25.00
35582;BMP180;21687;48.900;9.188;2022-08-21T09:46:27;98506.00;;;25.30
35582;BMP180;21687;48.900;9.188;2022-08-21T09:48:57;98497.00;;;25.30
35582;BMP180;21687;48.900;9.188;2022-08-21T09:54:19;98500.00;;;25.10
35582;BMP180;21687;48.900;9.188;2022-08-21T09:57:00;98499.00;;;25.10
35582;BMP180;21687;48.900;9.188;2022-08-21T09:59:49;98493.00;;;24.80
35582;BMP180;21687;48.900;9.188;2022-08-21T10:02:35;98495.00;;;24.90
35582;BMP180;21687;48.900;9.188;2022-08-21T10:05:20;98489.00;;;24.90
35582;BMP180;21687;48.900;9.188;2022-08-21T10:07:49;98493.00;;;24.80
35582;BMP180;21687;48.900;9.188;2022-08-21T10:10:19;98493.00;;;24.70
35582;BMP180;21687;48.900;9.188;2022-08-21T10:21:21;98474.00;;;25.10
35582;BMP180;21687;48.900;9.188;2022-08-21T10:32:01;98477.00;;;24.80
35582;BMP180;21687;48.900;9.188;2022-08-21T10:40:05;98471.00;;;24.50
35582;BMP180;21687;48.900;9.188;2022-08-21T10:42:45;98462.00;;;24.40
35582;BMP180;21687;48.900;9.188;2022-08-21T10:48:54;98455.00;;;24.50
35582;BMP180;21687;48.900;9.188;2022-08-21T10:58:51;98447.00;;;24.20
35582;BMP180;21687;48.900;9.188;2022-08-21T11:01:44;98461.00;;;24.50
35582;BMP180;21687;48.900;9.188;2022-08-21T11:04:36;98454.00;;;24.60
35582;BMP180;21687;48.900;9.188;2022-08-21T11:07:10;98445.00;;;24.50
35582;BMP180;21687;48.900;9.188;2022-08-21T11:09:41;98455.00;;;24.50
35582;BMP180;21687;48.900;9.188;2022-08-21T11:12:27;98447.00;;;24.50
35582;BMP180;21687;48.900;9.188;2022-08-21T11:14:55;98453.00;;;24.80
35582;BMP180;21687;48.900;9.188;2022-08-21T11:17:36;98453.00;;;24.80
35582;BMP180;21687;48.900;9.188;2022-08-21T11:20:20;98439.00;;;24.80
35582;BMP180;21687;48.900;9.188;2022-08-21T11:26:02;98450.00;;;24.60
35582;BMP180;21687;48.900;9.188;2022-08-21T11:28:35;98441.00;;;24.50
35582;BMP180;21687;48.900;9.188;2022-08-21T11:36:34;98424.00;;;24.40
35582;BMP180;21687;48.900;9.188;2022-08-21T11:39:30;98421.00;;;24.50
35582;BMP180;21687;48.900;9.188;2022-08-21T11:42:21;98429.00;;;24.70
35582;BMP180;21687;48.900;9.188;2022-08-21T11:50:32;98425.00;;;24.80
35582;BMP180;21687;48.900;9.188;2022-08-21T11:53:17;98427.00;;;24.80
35582;BMP180;21687;48.900;9.188;2022-08-21T11:58:39;98421.00;;;25.00
35582;BMP180;21687;48.900;9.188;2022-08-21T12:01:14;98419.00;;;24.80
35582;BMP180;21687;48.900;9.188;2022-08-21T12:03:52;98417.00;;;24.80
35582;BMP180;21687;48.900;9.188;2022-08-21T12:06:33;98427.00;;;24.80
35582;BMP180;21687;48.900;9.188;2022-08-21T12:09:33;98425.00;;;24.70
35582;BMP180;21687;48.900;9.188;2022-08-21T12:12:24;98419.00;;;24.70
35582;BMP180;21687;48.900;9.188;2022-08-21T12:15:14;98415.00;;;24.70
35582;BMP180;21687;48.900;9.188;2022-08-21T12:17:55;98418.00;;;24.80
35582;BMP180;21687;48.900;9.188;2022-08-21T12:20:42;98415.00;;;24.80
35582;BMP180;21687;48.900;9.188;2022-08-21T12:26:03;98406.00;;;24.90
35582;BMP180;21687;48.900;9.188;2022-08-21T12:28:35;98399.00;;;25.10
35582;BMP180;21687;48.900;9.188;2022-08-21T12:31:01;98396.00;;;25.20
35582;BMP180;21687;48.900;9.188;2022-08-21T12:33:34;98398.00;;;25.30
35582;BMP180;21687;48.900;9.188;2022-08-21T12:36:19;98386.00;;;25.30
35582;BMP180;21687;48.900;9.188;2022-08-21T12:39:05;98374.00;;;25.60
35582;BMP180;21687;48.900;9.188;2022-08-21T12:42:07;98377.00;;;25.60
35582;BMP180;21687;48.900;9.188;2022-08-21T12:45:11;98374.00;;;25.50
35582;BMP180;21687;48.900;9.188;2022-08-21T12:47:52;98374.00;;;25.30
35582;BMP180;21687;48.900;9.188;2022-08-21T12:53:28;98373.00;;;25.30
35582;BMP180;21687;48.900;9.188;2022-08-21T12:55:56;98373.00;;;25.50
35582;BMP180;21687;48.900;9.188;2022-08-21T12:58:28;98370.00;;;25.60
35582;BMP180;21687;48.900;9.188;2022-08-21T13:01:07;98369.00;;;25.50
35582;BMP180;21687;48.900;9.188;2022-08-21T13:03:36;98376.00;;;25.40
35582;BMP180;21687;48.900;9.188;2022-08-21T13:06:06;98376.00;;;25.40
35582;BMP180;21687;48.900;9.188;2022-08-21T13:08:35;98377.00;;;25.60
35582;BMP180;21687;48.900;9.188;2022-08-21T13:11:06;98379.00;;;25.50
35582;BMP180;21687;48.900;9.188;2022-08-21T13:13:32;98377.00;;;25.60
35582;BMP180;21687;48.900;9.188;2022-08-21T13:16:04;98374.00;;;25.80
35582;BMP180;21687;48.900;9.188;2022-08-21T13:18:34;98373.00;;;25.90
35582;BMP180;21687;48.900;9.188;2022-08-21T13:21:12;98372.00;;;25.80
35582;BMP180;21687;48.900;9.188;2022-08-21T13:23:39;98376.00;;;25.90
35582;BMP180;21687;48.900;9.188;2022-08-21T13:26:17;98372.00;;;25.80
35582;BMP180;21687;48.900;9.188;2022-08-21T13:28:44;98368.00;;;25.80
35582;BMP180;21687;48.900;9.188;2022-08-21T13:31:18;98365.00;;;25.90
35582;BMP180;21687;48.900;9.188;2022-08-21T13:33:48;98366.00;;;26.10
35582;BMP180;21687;48.900;9.188;2022-08-21T13:36:19;98361.00;;;26.00
35582;BMP180;21687;48.900;9.188;2022-08-21T13:38:46;98364.00;;;26.10
35582;BMP180;21687;48.900;9.188;2022-08-21T13:43:48;98352.00;;;26.40
35582;BMP180;21687;48.900;9.188;2022-08-21T13:46:15;98355.00;;;26.40
35582;BMP180;21687;48.900;9.188;2022-08-21T13:48:42;98351.00;;;26.30
35582;BMP180;21687;48.900;9.188;2022-08-21T13:51:10;98349.00;;;26.00
35582;BMP180;21687;48.900;9.188;2022-08-21T13:53:46;98333.00;;;25.90
35582;BMP180;21687;48.900;9.188;2022-08-21T13:58:54;98352.00;;;25.70
35582;BMP180;21687;48.900;9.188;2022-08-21T14:04:14;98352.00;;;25.80
35582;BMP180;21687;48.900;9.188;2022-08-21T14:06:42;98342.00;;;25.90
35582;BMP180;21687;48.900;9.188;2022-08-21T14:11:46;98343.00;;;25.70
35582;BMP180;21687;48.900;9.188;2022-08-21T14:14:45;98355.00;;;25.70
35582;BMP180;21687;48.900;9.188;2022-08-21T14:17:25;98347.00;;;25.70
35582;BMP180;21687;48.900;9.188;2022-08-21T14:19:52;98346.00;;;25.50
35582;BMP180;21687;48.900;9.188;2022-08-21T14:22:40;98340.00;;;25.50
35582;BMP180;21687;48.900;9.188;2022-08-21T14:25:26;98336.00;;;25.60
35582;BMP180;21687;48.900;9.188;2022-08-21T14:27:54;98335.00;;;25.70
35582;BMP180;21687;48.900;9.188;2022-08-21T14:30:28;98339.00;;;25.80
35582;BMP180;21687;48.900;9.188;2022-08-21T14:32:55;98329.00;;;25.80
35582;BMP180;21687;48.900;9.188;2022-08-21T14:35:21;98336.00;;;25.80
35582;BMP180;21687;48.900;9.188;2022-08-21T14:37:49;98333.00;;;26.10
35582;BMP180;21687;48.900;9.188;2022-08-21T14:40:20;98333.00;;;26.10
35582;BMP180;21687;48.900;9.188;2022-08-21T14:42:46;98333.00;;;26.20
35582;BMP180;21687;48.900;9.188;2022-08-21T14:45:20;98332.00;;;26.30
35582;BMP180;21687;48.900;9.188;2022-08-21T14:47:49;98324.00;;;26.30
35582;BMP180;21687;48.900;9.188;2022-08-21T14:50:15;98321.00;;;26.30
35582;BMP180;21687;48.900;9.188;2022-08-21T14:52:42;98314.00;;;26.30
35582;BMP180;21687;48.900;9.188;2022-08-21T14:55:09;98317.00;;;26.50
35582;BMP180;21687;48.900;9.188;2022-08-21T14:57:46;98308.00;;;26.60
35582;BMP180;21687;48.900;9.188;2022-08-21T15:00:18;98310.00;;;26.60
35582;BMP180;21687;48.900;9.188;2022-08-21T15:02:45;98317.00;;;26.70
35582;BMP180;21687;48.900;9.188;2022-08-21T15:05:12;98314.00;;;26.60
35582;BMP180;21687;48.900;9.188;2022-08-21T15:07:39;98312.00;;;26.60
35582;BMP180;21687;48.900;9.188;2022-08-21T15:10:06;98310.00;;;26.60
35582;BMP180;21687;48.900;9.188;2022-08-21T15:12:33;98310.00;;;26.40
35582;BMP180;21687;48.900;9.188;2022-08-21T15:14:59;98311.00;;;26.30
35582;BMP180;21687;48.900;9.188;2022-08-21T15:17:26;98309.00;;;26.00
35582;BMP180;21687;48.900;9.188;2022-08-21T15:19:52;98306.00;;;26.00
35582;BMP180;21687;48.900;9.188;2022-08-21T15:22:19;98302.00;;;26.00
35582;BMP180;21687;48.900;9.188;2022-08-21T15:24:45;98308.00;;;26.00
35582;BMP180;21687;48.900;9.188;2022-08-21T15:27:12;98304.00;;;26.00
35582;BMP180;21687;48.900;9.188;2022-08-21T15:29:41;98303.00;;;25.70
35582;BMP180;21687;48.900;9.188;2022-08-21T15:32:20;98306.00;;;25.60
35582;BMP180;21687;48.900;9.188;2022-08-21T15:34:49;98302.00;;;25.60
35582;BMP180;21687;48.900;9.188;2022-08-21T15:37:15;98296.00;;;25.70
35582;BMP180;21687;48.900;9.188;2022-08-21T15:39:41;98293.00;;;25.70
35582;BMP180;21687;48.900;9.188;2022-08-21T15:42:08;98295.00;;;25.50
35582;BMP180;21687;48.900;9.188;2022-08-21T15:44:35;98291.00;;;25.60
35582;BMP180;21687;48.900;9.188;2022-08-21T15:47:02;98288.00;;;25.60
35582;BMP180;21687;48.900;9.188;2022-08-21T15:49:28;98283.00;;;25.80
35582;BMP180;21687;48.900;9.188;2022-08-21T15:51:54;98283.00;;;25.80
35582;BMP180;21687;48.900;9.188;2022-08-21T15:54:20;98287.00;;;25.80